Time;durP1;ratioP1;P1;durP2;ratioP2;P2;SDS_P1;SDS_P2;PMS_P1;PMS_P2;Temp;Humidity;BMP_temperature;BMP_pressure;BME280_temperature;BME280_humidity;BME280_pressure;Samples;Min_cycle;Max_cycle;Signal;HPM_P1;HPM_P2
2022/04/09 00:01:15;;;;;;;0.70;0.70;;;;;;;;;;5022694;28;20556;-68
2022/04/09 00:04:02;;;;;;;0.70;0.70;;;;;;;;;;5019917;28;20214;-68
2022/04/09 00:06:50;;;;;;;0.60;0.60;;;;;;;;;;5025234;28;20698;-68
2022/04/09 00:09:37;;;;;;;1.20;0.70;;;;;;;;;;5021320;28;20210;-67
2022/04/09 00:12:24;;;;;;;0.70;0.70;;;;;;;;;;5021490;28;20777;-67
2022/04/09 00:15:11;;;;;;;0.77;0.60;;;;;;;;;;5023281;28;20249;-67
2022/04/09 00:17:58;;;;;;;0.70;0.70;;;;;;;;;;5020914;28;20295;-67
2022/04/09 00:20:45;;;;;;;0.80;0.80;;;;;;;;;;5020161;28;20894;-67
2022/04/09 00:23:33;;;;;;;0.67;0.60;;;;;;;;;;5020799;28;20303;-67
2022/04/09 00:26:20;;;;;;;0.70;0.70;;;;;;;;;;5022045;28;20296;-67
2022/04/09 00:29:07;;;;;;;0.73;0.70;;;;;;;;;;5018416;28;20219;-67
2022/04/09 00:31:54;;;;;;;0.80;0.80;;;;;;;;;;5020898;28;20221;-67
2022/04/09 00:34:41;;;;;;;0.80;0.63;;;;;;;;;;5019294;28;20684;-68
2022/04/09 00:37:29;;;;;;;0.90;0.60;;;;;;;;;;5017377;28;20274;-67
2022/04/09 00:40:19;;;;;;;1.00;0.80;;;;;;;;;;5017858;28;20215;-67
2022/04/09 00:43:06;;;;;;;1.33;0.70;;;;;;;;;;5017951;28;20230;-67
2022/04/09 00:45:53;;;;;;;0.50;0.50;;;;;;;;;;5016389;28;20289;-67
2022/04/09 00:48:41;;;;;;;0.60;0.60;;;;;;;;;;5021380;28;20499;-67
2022/04/09 00:51:28;;;;;;;0.60;0.60;;;;;;;;;;5024266;28;20384;-67
2022/04/09 00:54:15;;;;;;;0.60;0.60;;;;;;;;;;5020223;28;20961;-67
2022/04/09 00:57:05;;;;;;;0.80;0.80;;;;;;;;;;5025010;28;20691;-67
2022/04/09 00:59:55;;;;;;;0.80;0.80;;;;;;;;;;5020836;28;20218;-67
2022/04/09 01:02:44;;;;;;;0.70;0.70;;;;;;;;;;5022598;28;20682;-68
2022/04/09 01:05:31;;;;;;;0.60;0.60;;;;;;;;;;5025860;28;20212;-67
2022/04/09 01:08:18;;;;;;;0.83;0.83;;;;;;;;;;5027958;28;20289;-67
2022/04/09 01:11:05;;;;;;;0.67;0.50;;;;;;;;;;5022133;28;20304;-67
2022/04/09 01:13:54;;;;;;;0.73;0.73;;;;;;;;;;5022374;28;20220;-68
2022/04/09 01:16:41;;;;;;;0.87;0.70;;;;;;;;;;5025596;28;20303;-67
2022/04/09 01:19:28;;;;;;;0.60;0.60;;;;;;;;;;5029880;28;20290;-67
2022/04/09 01:22:16;;;;;;;0.90;0.80;;;;;;;;;;5020593;28;20218;-67
2022/04/09 01:25:03;;;;;;;0.97;0.67;;;;;;;;;;5024213;28;20217;-68
2022/04/09 01:27:51;;;;;;;0.60;0.60;;;;;;;;;;5021828;28;20318;-67
2022/04/09 01:30:38;;;;;;;1.33;0.67;;;;;;;;;;5023853;28;20202;-67
2022/04/09 01:33:26;;;;;;;0.40;0.40;;;;;;;;;;5024877;28;20294;-67
2022/04/09 01:36:14;;;;;;;0.50;0.50;;;;;;;;;;5022398;28;20255;-67
2022/04/09 01:39:02;;;;;;;0.90;0.60;;;;;;;;;;5022015;28;20663;-67
2022/04/09 01:41:49;;;;;;;0.57;0.57;;;;;;;;;;5021756;28;20213;-67
2022/04/09 01:44:36;;;;;;;0.37;0.37;;;;;;;;;;5022090;28;20249;-67
2022/04/09 01:47:23;;;;;;;0.50;0.50;;;;;;;;;;5020422;28;20258;-67
2022/04/09 01:50:11;;;;;;;0.60;0.60;;;;;;;;;;5024734;28;20244;-67
2022/04/09 01:52:58;;;;;;;0.50;0.50;;;;;;;;;;5024104;28;20398;-67
2022/04/09 01:55:46;;;;;;;0.47;0.47;;;;;;;;;;5022607;28;20198;-67
2022/04/09 01:58:33;;;;;;;0.57;0.57;;;;;;;;;;5020854;28;20238;-67
2022/04/09 02:01:21;;;;;;;0.60;0.60;;;;;;;;;;5021286;28;20247;-67
2022/04/09 02:04:08;;;;;;;0.77;0.77;;;;;;;;;;5025317;28;20198;-67
2022/04/09 02:06:55;;;;;;;0.40;0.40;;;;;;;;;;5021959;28;20201;-67
2022/04/09 02:09:42;;;;;;;0.50;0.50;;;;;;;;;;5024301;28;20209;-67
2022/04/09 02:12:32;;;;;;;0.60;0.60;;;;;;;;;;5025008;28;20213;-68
2022/04/09 02:15:20;;;;;;;0.60;0.60;;;;;;;;;;5021518;28;20206;-67
2022/04/09 02:18:07;;;;;;;0.63;0.63;;;;;;;;;;5026231;28;20305;-67
2022/04/09 02:20:55;;;;;;;1.20;0.60;;;;;;;;;;5024638;28;20260;-68
2022/04/09 02:23:41;;;;;;;0.73;0.70;;;;;;;;;;5022828;28;20214;-67
2022/04/09 02:26:29;;;;;;;1.07;0.97;;;;;;;;;;5024534;28;20292;-67
2022/04/09 02:29:17;;;;;;;0.77;0.77;;;;;;;;;;5018158;28;20559;-67
2022/04/09 02:32:05;;;;;;;0.73;0.73;;;;;;;;;;5022887;28;20218;-67
2022/04/09 02:34:54;;;;;;;0.73;0.73;;;;;;;;;;5021730;28;20709;-66
2022/04/09 02:37:41;;;;;;;0.70;0.70;;;;;;;;;;5019853;28;20264;-67
2022/04/09 02:40:28;;;;;;;0.90;0.90;;;;;;;;;;5021380;28;20313;-67
2022/04/09 02:43:15;;;;;;;1.53;0.60;;;;;;;;;;5023481;28;20210;-67
2022/04/09 02:46:03;;;;;;;1.50;0.77;;;;;;;;;;5021234;28;20698;-67
2022/04/09 02:48:50;;;;;;;0.87;0.80;;;;;;;;;;5024585;28;20303;-67
2022/04/09 02:51:37;;;;;;;0.87;0.87;;;;;;;;;;5020396;28;20233;-67
2022/04/09 02:54:24;;;;;;;0.80;0.70;;;;;;;;;;5019712;28;20645;-67
2022/04/09 02:57:11;;;;;;;0.70;0.70;;;;;;;;;;5021360;28;20273;-67
2022/04/09 02:59:58;;;;;;;0.90;0.70;;;;;;;;;;5022928;28;20218;-67
2022/04/09 03:02:47;;;;;;;0.73;0.73;;;;;;;;;;5025069;28;20641;-67
2022/04/09 03:05:34;;;;;;;0.70;0.70;;;;;;;;;;5021449;28;20812;-67
2022/04/09 03:08:21;;;;;;;0.83;0.80;;;;;;;;;;5019248;28;20695;-67
2022/04/09 03:11:08;;;;;;;0.80;0.80;;;;;;;;;;5028292;28;20861;-66
2022/04/09 03:13:55;;;;;;;0.80;0.80;;;;;;;;;;5023383;28;20575;-68
2022/04/09 03:16:42;;;;;;;0.60;0.60;;;;;;;;;;5022403;28;20795;-67
2022/04/09 03:19:30;;;;;;;0.90;0.90;;;;;;;;;;5018524;28;20221;-67
2022/04/09 03:22:17;;;;;;;0.60;0.60;;;;;;;;;;5028368;28;20210;-67
2022/04/09 03:25:05;;;;;;;0.67;0.67;;;;;;;;;;5026172;28;20211;-67
2022/04/09 03:27:52;;;;;;;0.70;0.70;;;;;;;;;;5021488;28;20678;-67
2022/04/09 03:30:39;;;;;;;0.50;0.50;;;;;;;;;;5020546;28;20301;-67
2022/04/09 03:33:26;;;;;;;0.70;0.70;;;;;;;;;;5021133;28;20591;-67
2022/04/09 03:36:15;;;;;;;0.60;0.60;;;;;;;;;;5021401;28;20469;-67
2022/04/09 03:39:01;;;;;;;0.70;0.70;;;;;;;;;;5019722;28;20719;-67
2022/04/09 03:41:48;;;;;;;0.80;0.80;;;;;;;;;;5015296;28;20242;-67
2022/04/09 03:44:35;;;;;;;0.67;0.67;;;;;;;;;;5018846;28;20297;-67
2022/04/09 03:47:22;;;;;;;0.93;0.93;;;;;;;;;;5018612;28;20361;-67
2022/04/09 03:50:10;;;;;;;0.50;0.50;;;;;;;;;;5020921;28;20321;-68
2022/04/09 03:53:00;;;;;;;0.60;0.60;;;;;;;;;;5022422;28;20271;-67
2022/04/09 03:55:47;;;;;;;0.50;0.50;;;;;;;;;;5024104;28;20280;-67
2022/04/09 03:58:37;;;;;;;0.50;0.50;;;;;;;;;;5019963;28;20596;-67
2022/04/09 04:01:24;;;;;;;0.53;0.53;;;;;;;;;;5022564;28;20267;-67
2022/04/09 04:04:11;;;;;;;0.70;0.70;;;;;;;;;;5020869;28;20210;-67
2022/04/09 04:06:58;;;;;;;0.33;0.33;;;;;;;;;;5023495;28;20210;-67
2022/04/09 04:09:47;;;;;;;0.67;0.60;;;;;;;;;;5022161;28;20691;-68
2022/04/09 04:12:34;;;;;;;0.53;0.53;;;;;;;;;;5021863;28;20229;-68
2022/04/09 04:15:21;;;;;;;0.50;0.50;;;;;;;;;;5023434;28;20304;-67
2022/04/09 04:18:07;;;;;;;0.60;0.60;;;;;;;;;;5022425;28;20363;-67
2022/04/09 04:20:54;;;;;;;0.70;0.70;;;;;;;;;;5022534;28;20680;-69
2022/04/09 04:23:41;;;;;;;0.53;0.53;;;;;;;;;;5021455;28;20692;-67
2022/04/09 04:26:30;;;;;;;0.60;0.60;;;;;;;;;;5016320;28;20262;-67
2022/04/09 04:29:16;;;;;;;0.70;0.70;;;;;;;;;;5018971;28;20665;-68
2022/04/09 04:32:04;;;;;;;0.60;0.60;;;;;;;;;;5022937;28;20239;-67
2022/04/09 04:34:51;;;;;;;0.70;0.53;;;;;;;;;;5020435;28;20218;-67
2022/04/09 04:37:38;;;;;;;0.77;0.77;;;;;;;;;;5019639;28;20205;-67
2022/04/09 04:40:25;;;;;;;0.60;0.60;;;;;;;;;;5023586;28;20204;-67
2022/04/09 04:43:14;;;;;;;0.87;0.60;;;;;;;;;;5022671;28;20231;-67
2022/04/09 04:46:01;;;;;;;0.57;0.57;;;;;;;;;;5021539;28;20268;-68
2022/04/09 04:48:48;;;;;;;0.50;0.50;;;;;;;;;;5026126;28;20211;-67
2022/04/09 04:51:35;;;;;;;0.60;0.60;;;;;;;;;;5022558;28;20249;-67
2022/04/09 04:54:22;;;;;;;0.80;0.80;;;;;;;;;;5022825;28;20854;-67
2022/04/09 04:57:09;;;;;;;0.50;0.50;;;;;;;;;;5023738;28;20280;-67
2022/04/09 04:59:59;;;;;;;0.70;0.70;;;;;;;;;;5026467;28;20207;-67
2022/04/09 05:02:46;;;;;;;1.93;0.60;;;;;;;;;;5022136;28;20663;-68
2022/04/09 05:05:33;;;;;;;0.80;0.80;;;;;;;;;;5026356;28;20287;-67
2022/04/09 05:08:19;;;;;;;0.87;0.87;;;;;;;;;;5025839;28;20208;-67
2022/04/09 05:11:06;;;;;;;0.77;0.77;;;;;;;;;;5025799;28;20206;-68
2022/04/09 05:13:53;;;;;;;0.70;0.70;;;;;;;;;;5020986;28;20207;-67
2022/04/09 05:16:42;;;;;;;0.73;0.60;;;;;;;;;;5027693;28;20630;-67
2022/04/09 05:19:29;;;;;;;0.70;0.70;;;;;;;;;;5021340;28;20783;-67
2022/04/09 05:22:16;;;;;;;0.90;0.90;;;;;;;;;;5022325;28;20692;-67
2022/04/09 05:25:04;;;;;;;0.50;0.50;;;;;;;;;;5027640;28;20687;-67
2022/04/09 05:27:51;;;;;;;0.60;0.60;;;;;;;;;;5024560;28;20656;-67
2022/04/09 05:30:38;;;;;;;0.60;0.60;;;;;;;;;;5026569;28;20268;-68
2022/04/09 05:33:26;;;;;;;0.70;0.70;;;;;;;;;;5020359;28;20292;-67
2022/04/09 05:36:13;;;;;;;0.70;0.70;;;;;;;;;;5021079;28;20210;-67
2022/04/09 05:39:00;;;;;;;1.37;0.93;;;;;;;;;;5020894;28;20621;-67
2022/04/09 05:41:47;;;;;;;0.73;0.73;;;;;;;;;;5022695;28;20310;-67
2022/04/09 05:44:34;;;;;;;0.50;0.50;;;;;;;;;;5019343;28;20277;-67
2022/04/09 05:47:21;;;;;;;0.60;0.60;;;;;;;;;;5026709;28;20258;-68
2022/04/09 05:50:10;;;;;;;1.70;0.50;;;;;;;;;;5022451;28;20379;-67
2022/04/09 05:52:57;;;;;;;0.80;0.67;;;;;;;;;;5021723;28;20314;-68
2022/04/09 05:55:44;;;;;;;0.50;0.50;;;;;;;;;;5023039;28;20226;-67
2022/04/09 05:58:31;;;;;;;0.60;0.60;;;;;;;;;;5023651;28;20311;-67
2022/04/09 06:01:18;;;;;;;0.60;0.60;;;;;;;;;;5023869;28;20237;-68
2022/04/09 06:04:06;;;;;;;0.70;0.70;;;;;;;;;;5022819;28;20234;-68
2022/04/09 06:06:55;;;;;;;1.50;0.53;;;;;;;;;;5025348;28;20601;-67
2022/04/09 06:09:42;;;;;;;0.63;0.60;;;;;;;;;;5025608;28;20218;-67
2022/04/09 06:12:29;;;;;;;0.70;0.70;;;;;;;;;;5020565;28;20221;-68
2022/04/09 06:15:16;;;;;;;0.60;0.60;;;;;;;;;;5021833;28;20299;-67
2022/04/09 06:18:06;;;;;;;0.60;0.60;;;;;;;;;;5020121;28;20275;-68
2022/04/09 06:20:53;;;;;;;0.73;0.73;;;;;;;;;;5027651;28;20283;-67
2022/04/09 06:23:41;;;;;;;0.60;0.60;;;;;;;;;;5024267;28;20587;-68
2022/04/09 06:26:28;;;;;;;0.60;0.60;;;;;;;;;;5026436;28;20221;-67
2022/04/09 06:29:15;;;;;;;1.37;0.80;;;;;;;;;;5022522;28;20225;-67
2022/04/09 06:32:02;;;;;;;0.60;0.60;;;;;;;;;;5019388;28;20241;-68
2022/04/09 06:34:49;;;;;;;1.35;0.80;;;;;;;;;;5023460;28;20700;-67
2022/04/09 06:37:39;;;;;;;0.63;0.63;;;;;;;;;;5021888;28;20209;-68
2022/04/09 06:40:28;;;;;;;0.75;0.75;;;;;;;;;;5019667;28;20214;-68
2022/04/09 06:43:15;;;;;;;1.77;0.70;;;;;;;;;;5020940;28;20583;-68
2022/04/09 06:46:02;;;;;;;0.60;0.60;;;;;;;;;;5020133;28;20523;-65
2022/04/09 06:48:49;;;;;;;0.52;0.52;;;;;;;;;;5022061;28;20571;-65
2022/04/09 06:51:36;;;;;;;0.65;0.60;;;;;;;;;;5019784;28;20237;-65
2022/04/09 06:54:23;;;;;;;0.80;0.80;;;;;;;;;;5023533;28;20683;-66
2022/04/09 06:57:11;;;;;;;0.60;0.60;;;;;;;;;;5022728;28;20205;-66
2022/04/09 06:59:59;;;;;;;0.60;0.60;;;;;;;;;;5026905;28;20721;-66
2022/04/09 07:02:46;;;;;;;0.60;0.60;;;;;;;;;;5019511;28;20288;-66
2022/04/09 07:05:33;;;;;;;0.52;0.52;;;;;;;;;;5022435;28;20208;-65
2022/04/09 07:08:20;;;;;;;0.32;0.32;;;;;;;;;;5025551;28;20693;-65
2022/04/09 07:11:07;;;;;;;0.52;0.52;;;;;;;;;;5021629;28;20212;-65
2022/04/09 07:13:55;;;;;;;0.50;0.50;;;;;;;;;;5020691;28;20299;-65
2022/04/09 07:16:44;;;;;;;0.80;0.80;;;;;;;;;;5026709;28;20714;-67
2022/04/09 07:19:31;;;;;;;0.45;0.45;;;;;;;;;;5019774;28;20224;-67
2022/04/09 07:22:18;;;;;;;0.50;0.50;;;;;;;;;;5021036;28;20205;-66
2022/04/09 07:25:06;;;;;;;0.50;0.50;;;;;;;;;;5019650;28;20246;-66
2022/04/09 07:27:53;;;;;;;0.30;0.28;;;;;;;;;;5023725;28;20740;-67
2022/04/09 07:30:43;;;;;;;0.40;0.40;;;;;;;;;;5019370;28;20216;-66
2022/04/09 07:33:30;;;;;;;0.60;0.50;;;;;;;;;;5025131;28;20657;-66
2022/04/09 07:36:17;;;;;;;0.38;0.38;;;;;;;;;;5017425;28;20208;-67
2022/04/09 07:39:04;;;;;;;0.63;0.47;;;;;;;;;;5019292;28;20264;-66
2022/04/09 07:41:51;;;;;;;0.60;0.60;;;;;;;;;;5018221;28;20258;-66
2022/04/09 07:44:38;;;;;;;0.20;0.20;;;;;;;;;;5017631;28;20674;-66
2022/04/09 07:47:26;;;;;;;0.45;0.45;;;;;;;;;;5019193;28;20286;-66
2022/04/09 07:50:14;;;;;;;0.32;0.32;;;;;;;;;;5017875;28;20259;-66
2022/04/09 07:53:01;;;;;;;0.43;0.40;;;;;;;;;;5020276;28;20225;-66
2022/04/09 07:55:48;;;;;;;0.68;0.40;;;;;;;;;;5023585;28;20212;-66
2022/04/09 07:58:35;;;;;;;0.40;0.40;;;;;;;;;;5020890;28;20243;-66
2022/04/09 08:01:22;;;;;;;0.40;0.40;;;;;;;;;;5019568;28;20556;-66
2022/04/09 08:04:10;;;;;;;0.50;0.50;;;;;;;;;;5021011;28;20295;-66
2022/04/09 08:06:57;;;;;;;0.20;0.20;;;;;;;;;;5024863;28;20255;-66
2022/04/09 08:09:44;;;;;;;0.50;0.50;;;;;;;;;;5020049;28;20212;-66
2022/04/09 08:12:31;;;;;;;0.38;0.30;;;;;;;;;;5023207;28;20230;-67
2022/04/09 08:15:19;;;;;;;0.30;0.30;;;;;;;;;;5021538;28;20627;-66
2022/04/09 08:18:07;;;;;;;0.52;0.38;;;;;;;;;;5019437;28;20669;-66
2022/04/09 08:20:55;;;;;;;0.30;0.30;;;;;;;;;;5019021;28;20213;-66
2022/04/09 08:23:42;;;;;;;0.28;0.17;;;;;;;;;;5018308;28;20220;-66
2022/04/09 08:26:29;;;;;;;0.30;0.30;;;;;;;;;;5020801;28;20560;-66
2022/04/09 08:29:19;;;;;;;0.50;0.30;;;;;;;;;;5024193;28;20208;-65
2022/04/09 08:32:07;;;;;;;0.45;0.45;;;;;;;;;;5018560;28;20686;-65
2022/04/09 08:34:55;;;;;;;0.50;0.50;;;;;;;;;;5020779;28;20282;-66
2022/04/09 08:37:43;;;;;;;0.45;0.32;;;;;;;;;;5019015;28;20657;-66
2022/04/09 08:40:33;;;;;;;0.30;0.30;;;;;;;;;;5016971;28;20256;-67
2022/04/09 08:43:20;;;;;;;1.38;0.60;;;;;;;;;;5018347;28;20326;-67
2022/04/09 08:46:07;;;;;;;0.70;0.55;;;;;;;;;;5024941;28;20220;-66
2022/04/09 08:48:55;;;;;;;1.27;0.40;;;;;;;;;;5020802;28;20208;-67
2022/04/09 08:51:43;;;;;;;0.43;0.43;;;;;;;;;;5023290;28;20615;-67
2022/04/09 08:54:34;;;;;;;1.30;0.50;;;;;;;;;;5020836;28;20215;-67
2022/04/09 08:57:21;;;;;;;0.60;0.60;;;;;;;;;;5020102;28;20350;-66
2022/04/09 09:00:13;;;;;;;0.75;0.40;;;;;;;;;;5021908;28;20274;-67
2022/04/09 09:03:02;;;;;;;0.60;0.45;;;;;;;;;;5022836;28;20251;-66
2022/04/09 09:05:52;;;;;;;0.25;0.25;;;;;;;;;;5021175;28;20323;-67
2022/04/09 09:08:42;;;;;;;0.47;0.47;;;;;;;;;;5017858;28;20204;-67
2022/04/09 09:11:44;;;;;;;0.60;0.60;;;;;;;;;;5017506;28;20306;-67
2022/04/09 09:14:33;;;;;;;0.52;0.52;;;;;;;;;;5018700;28;21448;-67
2022/04/09 09:17:28;;;;;;;0.52;0.50;;;;;;;;;;5026903;28;20200;-67
2022/04/09 09:20:15;;;;;;;0.40;0.40;;;;;;;;;;5025583;28;20368;-67
2022/04/09 09:23:01;;;;;;;0.70;0.70;;;;;;;;;;5023120;28;20255;-67
2022/04/09 09:25:49;;;;;;;0.70;0.70;;;;;;;;;;5023276;28;20616;-67
2022/04/09 09:28:38;;;;;;;1.77;0.68;;;;;;;;;;5020153;28;20216;-67
2022/04/09 09:31:40;;;;;;;0.65;0.60;;;;;;;;;;5020933;28;20280;-67
2022/04/09 09:34:29;;;;;;;0.60;0.60;;;;;;;;;;5020968;28;20215;-67
2022/04/09 09:37:23;;;;;;;0.60;0.60;;;;;;;;;;5022707;28;20577;-67
2022/04/09 09:40:12;;;;;;;0.65;0.65;;;;;;;;;;5021898;28;20309;-67
2022/04/09 09:43:14;;;;;;;2.42;0.65;;;;;;;;;;5021688;28;20311;-67
2022/04/09 09:46:02;;;;;;;0.85;0.52;;;;;;;;;;5023937;28;20214;-67
2022/04/09 09:48:51;;;;;;;0.38;0.38;;;;;;;;;;5020056;28;20606;-66
2022/04/09 09:51:38;;;;;;;0.50;0.50;;;;;;;;;;5022461;28;20240;-67
2022/04/09 09:54:25;;;;;;;0.50;0.50;;;;;;;;;;5021722;28;20246;-66
2022/04/09 09:57:20;;;;;;;0.43;0.38;;;;;;;;;;5024006;28;20332;-66
2022/04/09 10:00:10;;;;;;;0.40;0.40;;;;;;;;;;5023938;28;20260;-66
2022/04/09 10:02:59;;;;;;;0.80;0.40;;;;;;;;;;5020865;28;20267;-66
2022/04/09 10:05:48;;;;;;;0.80;0.50;;;;;;;;;;5023401;28;20230;-66
2022/04/09 10:08:37;;;;;;;0.90;0.60;;;;;;;;;;5025241;28;20724;-66
2022/04/09 10:11:26;;;;;;;0.70;0.40;;;;;;;;;;5024013;28;20203;-67
2022/04/09 10:14:17;;;;;;;0.80;0.50;;;;;;;;;;5022933;28;20212;-66
2022/04/09 10:17:07;;;;;;;1.92;0.70;;;;;;;;;;5019281;28;20214;-67
2022/04/09 10:19:56;;;;;;;0.40;0.40;;;;;;;;;;5025008;28;20265;-66
2022/04/09 10:22:45;;;;;;;0.77;0.60;;;;;;;;;;5015642;28;20506;-67
2022/04/09 10:25:34;;;;;;;1.50;0.50;;;;;;;;;;5025882;28;20570;-67
2022/04/09 10:28:32;;;;;;;0.77;0.63;;;;;;;;;;5022736;28;20780;-67
2022/04/09 10:31:37;;;;;;;1.07;0.77;;;;;;;;;;5020227;28;20728;-67
2022/04/09 10:34:24;;;;;;;0.77;0.57;;;;;;;;;;5020768;28;20223;-67
2022/04/09 10:37:12;;;;;;;0.60;0.40;;;;;;;;;;5022412;28;20710;-67
2022/04/09 10:40:04;;;;;;;0.57;0.57;;;;;;;;;;5019999;28;20226;-67
2022/04/09 10:42:52;;;;;;;0.50;0.50;;;;;;;;;;5022090;28;20647;-67
2022/04/09 10:46:18;;;;;;;1.13;0.50;;;;;;;;;;5022599;28;20213;-67
2022/04/09 10:49:19;;;;;;;0.90;0.47;;;;;;;;;;5018701;28;20214;-67
2022/04/09 10:52:16;;;;;;;1.95;0.60;;;;;;;;;;5021323;28;20712;-67
2022/04/09 10:55:24;;;;;;;1.50;0.63;;;;;;;;;;5021303;28;20877;-67
2022/04/09 10:58:12;;;;;;;0.40;0.40;;;;;;;;;;5019914;28;20298;-67
2022/04/09 11:00:59;;;;;;;0.87;0.67;;;;;;;;;;5023244;28;20235;-67
2022/04/09 11:03:46;;;;;;;2.80;0.60;;;;;;;;;;5021411;28;20729;-67
2022/04/09 11:06:43;;;;;;;0.63;0.53;;;;;;;;;;5023132;28;20748;-67
2022/04/09 11:09:43;;;;;;;0.80;0.67;;;;;;;;;;5021557;28;20238;-67
2022/04/09 11:12:31;;;;;;;1.53;0.43;;;;;;;;;;5021873;28;20323;-67
2022/04/09 11:15:21;;;;;;;0.80;0.50;;;;;;;;;;5021291;28;20211;-67
2022/04/09 11:18:08;;;;;;;0.70;0.57;;;;;;;;;;5023181;28;20568;-67
2022/04/09 11:20:55;;;;;;;1.23;0.60;;;;;;;;;;5023691;28;20243;-67
2022/04/09 11:23:44;;;;;;;0.80;0.50;;;;;;;;;;5022825;28;20734;-67
2022/04/09 11:26:32;;;;;;;0.73;0.60;;;;;;;;;;5022577;28;20290;-67
2022/04/09 11:29:19;;;;;;;0.50;0.30;;;;;;;;;;5017232;28;20204;-67
2022/04/09 11:32:07;;;;;;;0.60;0.60;;;;;;;;;;5022141;28;20289;-68
2022/04/09 11:34:57;;;;;;;0.70;0.70;;;;;;;;;;5026839;28;20219;-68
2022/04/09 11:37:47;;;;;;;0.77;0.67;;;;;;;;;;5024187;28;20209;-68
2022/04/09 11:40:35;;;;;;;0.60;0.60;;;;;;;;;;5018411;28;21148;-67
2022/04/09 11:43:24;;;;;;;0.67;0.57;;;;;;;;;;5023772;28;20213;-67
2022/04/09 11:46:12;;;;;;;2.20;0.70;;;;;;;;;;5019193;28;20216;-68
2022/04/09 11:49:02;;;;;;;1.73;0.60;;;;;;;;;;5022998;28;20207;-68
2022/04/09 11:51:55;;;;;;;1.13;0.80;;;;;;;;;;5004908;28;20320;-68
2022/04/09 11:54:43;;;;;;;0.70;0.70;;;;;;;;;;5004095;28;20343;-67
2022/04/09 11:57:30;;;;;;;0.60;0.60;;;;;;;;;;5001548;28;20214;-68
2022/04/09 12:00:20;;;;;;;3.17;0.73;;;;;;;;;;5001160;28;20234;-68
2022/04/09 12:03:07;;;;;;;2.60;0.90;;;;;;;;;;5003523;28;20225;-68
2022/04/09 12:05:54;;;;;;;0.70;0.70;;;;;;;;;;5001740;28;20686;-68
2022/04/09 12:08:41;;;;;;;1.23;0.50;;;;;;;;;;5002786;28;20230;-68
2022/04/09 12:11:28;;;;;;;0.60;0.60;;;;;;;;;;5003671;28;20283;-68
2022/04/09 12:14:16;;;;;;;0.73;0.73;;;;;;;;;;5001068;28;20254;-68
2022/04/09 12:17:13;;;;;;;1.10;0.60;;;;;;;;;;4999633;28;20223;-68
2022/04/09 12:20:00;;;;;;;0.97;0.70;;;;;;;;;;4999274;28;20256;-68
2022/04/09 12:22:55;;;;;;;0.80;0.80;;;;;;;;;;5002338;28;20210;-68
2022/04/09 12:25:43;;;;;;;3.50;0.80;;;;;;;;;;5000490;28;20208;-68
2022/04/09 12:28:33;;;;;;;0.80;0.80;;;;;;;;;;5001942;28;20269;-67
2022/04/09 12:31:26;;;;;;;1.30;0.93;;;;;;;;;;4995952;28;20298;-68
2022/04/09 12:34:15;;;;;;;0.70;0.70;;;;;;;;;;5001828;28;20337;-68
2022/04/09 12:37:04;;;;;;;0.87;0.80;;;;;;;;;;5000313;28;20285;-68
2022/04/09 12:39:52;;;;;;;0.80;0.80;;;;;;;;;;4997895;28;20233;-68
2022/04/09 12:42:39;;;;;;;0.77;0.60;;;;;;;;;;4998348;28;20206;-68
2022/04/09 12:45:27;;;;;;;0.60;0.50;;;;;;;;;;5001688;28;20213;-68
2022/04/09 12:48:15;;;;;;;0.70;0.70;;;;;;;;;;4999523;28;20321;-67
2022/04/09 12:51:03;;;;;;;3.00;0.93;;;;;;;;;;5010281;28;20318;-67
2022/04/09 12:53:51;;;;;;;1.13;0.70;;;;;;;;;;5026896;28;20279;-67
2022/04/09 12:56:39;;;;;;;1.10;0.80;;;;;;;;;;5021866;28;20200;-68
2022/04/09 12:59:27;;;;;;;1.10;0.73;;;;;;;;;;5024725;28;20226;-68
2022/04/09 13:02:15;;;;;;;1.40;0.80;;;;;;;;;;5026141;28;20346;-68
2022/04/09 13:05:02;;;;;;;1.30;0.80;;;;;;;;;;5024736;28;20214;-68
2022/04/09 13:07:51;;;;;;;1.23;0.80;;;;;;;;;;5018996;28;20216;-67
2022/04/09 13:10:38;;;;;;;1.20;1.10;;;;;;;;;;5022032;28;20201;-68
2022/04/09 13:13:25;;;;;;;1.83;1.00;;;;;;;;;;5020422;28;20210;-68
2022/04/09 13:16:12;;;;;;;1.10;1.00;;;;;;;;;;5020430;28;20256;-67
2022/04/09 13:18:59;;;;;;;3.93;0.70;;;;;;;;;;5024992;28;20589;-68
2022/04/09 13:21:46;;;;;;;1.60;0.80;;;;;;;;;;5017446;28;20706;-67
2022/04/09 13:24:34;;;;;;;0.80;0.70;;;;;;;;;;5020576;28;20292;-67
2022/04/09 13:27:21;;;;;;;1.57;0.57;;;;;;;;;;5020553;28;20201;-67
2022/04/09 13:30:09;;;;;;;1.03;0.53;;;;;;;;;;5023065;28;20232;-68
2022/04/09 13:32:57;;;;;;;2.47;0.80;;;;;;;;;;5018889;28;20293;-68
2022/04/09 13:35:43;;;;;;;1.10;0.77;;;;;;;;;;5020109;28;20213;-67
2022/04/09 13:38:30;;;;;;;0.57;0.57;;;;;;;;;;5021005;28;20566;-68
2022/04/09 13:41:22;;;;;;;1.13;0.80;;;;;;;;;;5025145;28;20268;-68
2022/04/09 13:44:09;;;;;;;1.03;0.93;;;;;;;;;;5023023;28;20281;-68
2022/04/09 13:46:56;;;;;;;0.50;0.50;;;;;;;;;;5021959;28;20337;-67
2022/04/09 13:49:43;;;;;;;1.17;0.70;;;;;;;;;;5024257;28;20217;-68
2022/04/09 13:52:30;;;;;;;1.00;0.63;;;;;;;;;;5027528;28;20304;-68
2022/04/09 13:55:17;;;;;;;1.27;0.90;;;;;;;;;;5021355;28;20704;-67
2022/04/09 13:58:05;;;;;;;1.00;0.80;;;;;;;;;;5025169;28;20693;-68
2022/04/09 14:00:52;;;;;;;1.27;0.80;;;;;;;;;;5021627;28;20357;-68
2022/04/09 14:03:39;;;;;;;1.87;0.90;;;;;;;;;;5023862;28;20292;-68
2022/04/09 14:06:26;;;;;;;0.70;0.60;;;;;;;;;;5022496;28;20292;-68
2022/04/09 14:09:13;;;;;;;0.73;0.73;;;;;;;;;;5023598;28;20210;-68
2022/04/09 14:12:00;;;;;;;0.73;0.70;;;;;;;;;;5026523;28;20247;-67
2022/04/09 14:14:49;;;;;;;0.70;0.67;;;;;;;;;;5025430;28;20281;-68
2022/04/09 14:17:36;;;;;;;1.40;0.80;;;;;;;;;;5017734;28;20366;-67
2022/04/09 14:20:22;;;;;;;0.90;0.70;;;;;;;;;;5021719;28;20680;-68
2022/04/09 14:23:10;;;;;;;0.80;0.80;;;;;;;;;;5023120;28;20694;-68
2022/04/09 14:25:57;;;;;;;1.00;0.77;;;;;;;;;;5021856;28;20301;-68
2022/04/09 14:28:43;;;;;;;2.00;0.90;;;;;;;;;;5014911;28;20290;-67
2022/04/09 14:31:33;;;;;;;0.70;0.50;;;;;;;;;;5023312;28;20281;-68
2022/04/09 14:34:20;;;;;;;0.87;0.70;;;;;;;;;;5020592;28;20293;-68
2022/04/09 14:37:07;;;;;;;1.73;0.80;;;;;;;;;;5022169;28;20304;-67
2022/04/09 14:39:53;;;;;;;1.00;0.80;;;;;;;;;;5019662;28;21158;-68
2022/04/09 14:42:41;;;;;;;0.60;0.50;;;;;;;;;;5022573;28;20244;-68
2022/04/09 14:45:28;;;;;;;1.90;0.60;;;;;;;;;;5022638;28;20205;-68
2022/04/09 14:48:16;;;;;;;0.70;0.60;;;;;;;;;;5022021;28;20252;-68
2022/04/09 14:51:03;;;;;;;0.60;0.60;;;;;;;;;;5016381;28;20260;-68
2022/04/09 14:53:50;;;;;;;0.80;0.80;;;;;;;;;;5019173;28;20237;-68
2022/04/09 14:56:37;;;;;;;0.83;0.80;;;;;;;;;;5022581;28;20661;-67
2022/04/09 14:59:24;;;;;;;1.40;0.83;;;;;;;;;;5020204;28;20217;-67
2022/04/09 15:02:12;;;;;;;1.23;0.70;;;;;;;;;;5017656;28;20304;-67
2022/04/09 15:05:01;;;;;;;0.50;0.50;;;;;;;;;;5019754;28;20206;-67
2022/04/09 15:07:48;;;;;;;0.67;0.67;;;;;;;;;;5022505;28;20673;-67
2022/04/09 15:10:35;;;;;;;1.27;0.60;;;;;;;;;;5018689;28;20261;-68
2022/04/09 15:13:22;;;;;;;0.67;0.60;;;;;;;;;;5020008;28;20311;-67
2022/04/09 15:16:08;;;;;;;1.20;0.80;;;;;;;;;;5022568;28;20264;-68
2022/04/09 15:18:55;;;;;;;0.93;0.70;;;;;;;;;;5016937;28;20318;-68
2022/04/09 15:21:44;;;;;;;0.77;0.77;;;;;;;;;;5017662;28;20695;-68
2022/04/09 15:24:31;;;;;;;0.60;0.60;;;;;;;;;;5016184;28;20216;-68
2022/04/09 15:27:18;;;;;;;0.57;0.57;;;;;;;;;;5020311;28;20586;-68
2022/04/09 15:30:09;;;;;;;0.60;0.60;;;;;;;;;;5021952;28;20216;-67
2022/04/09 15:32:56;;;;;;;0.63;0.60;;;;;;;;;;5021574;28;20217;-67
2022/04/09 15:35:43;;;;;;;1.03;0.60;;;;;;;;;;5017708;28;20256;-67
2022/04/09 15:38:32;;;;;;;1.57;0.87;;;;;;;;;;5018451;28;20244;-67
2022/04/09 15:41:19;;;;;;;0.70;0.50;;;;;;;;;;5015864;28;20312;-67
2022/04/09 15:44:07;;;;;;;1.17;0.90;;;;;;;;;;5023756;28;20207;-67
2022/04/09 15:46:56;;;;;;;1.83;0.70;;;;;;;;;;5023311;28;20215;-68
2022/04/09 15:49:43;;;;;;;1.43;0.83;;;;;;;;;;5019535;28;20209;-71
2022/04/09 15:52:30;;;;;;;1.40;1.00;;;;;;;;;;5019292;28;20741;-68
2022/04/09 15:55:19;;;;;;;1.93;1.30;;;;;;;;;;5020036;28;20698;-68
2022/04/09 15:58:06;;;;;;;0.80;0.80;;;;;;;;;;5022852;28;20211;-68
2022/04/09 16:00:54;;;;;;;1.40;1.30;;;;;;;;;;5022063;28;20221;-68
2022/04/09 16:03:41;;;;;;;1.40;1.00;;;;;;;;;;5018243;28;20287;-68
2022/04/09 16:06:28;;;;;;;2.67;1.07;;;;;;;;;;5022091;28;20289;-68
2022/04/09 16:09:15;;;;;;;2.67;1.27;;;;;;;;;;5024181;28;20328;-67
2022/04/09 16:12:06;;;;;;;1.40;1.30;;;;;;;;;;5018379;28;20578;-68
2022/04/09 16:14:52;;;;;;;1.90;1.30;;;;;;;;;;5021066;28;20235;-68
2022/04/09 16:17:39;;;;;;;2.73;1.10;;;;;;;;;;5020273;28;20255;-68
2022/04/09 16:20:26;;;;;;;1.30;1.20;;;;;;;;;;5017984;28;20245;-67
2022/04/09 16:23:14;;;;;;;2.00;1.43;;;;;;;;;;5020847;28;20293;-67
2022/04/09 16:26:01;;;;;;;1.50;1.40;;;;;;;;;;5022295;28;20723;-67
2022/04/09 16:28:50;;;;;;;1.90;1.30;;;;;;;;;;5024720;28;20237;-67
2022/04/09 16:31:37;;;;;;;1.40;1.27;;;;;;;;;;5026395;28;20283;-67
2022/04/09 16:34:24;;;;;;;1.70;1.60;;;;;;;;;;5023314;28;20217;-66
2022/04/09 16:37:11;;;;;;;1.77;1.50;;;;;;;;;;5024382;28;20268;-67
2022/04/09 16:39:58;;;;;;;1.80;1.60;;;;;;;;;;5021365;28;20210;-66
2022/04/09 16:42:45;;;;;;;1.43;1.33;;;;;;;;;;5020894;28;20306;-66
2022/04/09 16:45:33;;;;;;;1.27;1.10;;;;;;;;;;5022228;28;20687;-66
2022/04/09 16:48:21;;;;;;;1.60;1.50;;;;;;;;;;5026286;28;20252;-67